windsock image

Welcome to Bigfield Strip.

anemometer image
     

 Help for dials.  
 
Local Met:

Wind:   
10 Min average:  
5 ° / 0.0 kts (0.0)
 / 0.0

Temperature:  
12.0°C C
Dew Point:  
9.7°C C
QNH:  
Trend:  
1021.6 mb mb
+0.3mb/hr
BigField Strip. This image updates approximately every minute, it can have a two minute delay.  
 

Humidity:  
86 %
Sunrise:   05:15z
Sunset:   18:51z
Updated:  
  UTC
 
   More met info, trends, radar, history etc. available here   

LUTON Metar   EGGW 012250Z AUTO 33005KT 9999 SCT046 13/11 Q1022
 
  TAF   2014/09/01 18:34 TAF AMD EGGW 011827Z 0118/0218 02008KT 9999 SCT025 TEMPO 0118/0123 BKN008 BECMG 0123/0202 3000 BR BKN004 PROB40 0203/0207 0300 FG OVC001 BECMG 0207/0210 9999 NSW SCT015
 
BENSON Metar   EGUB 012250Z 03004KT CAVOK 11/10 Q1022 BLU NOSIG
 
  TAF   2014/09/01 21:03 TAF TAF COR EGUB 011934Z 0121/0202 33006KT 9999 FEW035
 
Big Field view 1 icon   Big Field view 2 icon   Big Field view 3 icon   Chart AL3a in PDF icon   Chart AL3a in Word icon

WARNING:
This information is provided by the Airstrip unofficial weather station, DO NOT depend on the data provided here for any purpose.
This page is updated for latest Metars & TAF's every 5 minutes. Refresh the browser to check for the lastest.
Page designed for a minimum browser size of 1024x768.
© Copyright 2014 BigField Strip. This page auto generated 23:16 UTC - 01/09/2014   Contact Us
Valid HTML 4.01 Transitional     Windows uptime: 0 Days 20 Hours 44 Minutes 29 Seconds    WD started: 02:37 01/09/14    Free memory: 1546MB     Valid CSS!